Time,TemperatureF,DewpointF,PressureIn,WindDirection,WindDirectionDegrees,WindSpeedMPH,WindSpeedGustMPH,Humidity,HourlyPrecipIn,Conditions,Clouds,dailyrainin,SoftwareType,DateUTC
2013-01-14 00:03:00,7.9,3.8,30.31,NNW,338,0.0,0.0,83,0.00,,,0.00,WUHU216HW,2013-01-14 06:03:00,
2013-01-14 00:08:00,7.6,3.4,30.31,NNW,338,0.0,0.0,83,0.00,,,0.00,WUHU216HW,2013-01-14 06:08:00,
2013-01-14 00:13:00,7.0,2.9,30.31,NNW,338,0.0,0.0,83,0.00,,,0.00,WUHU216HW,2013-01-14 06:13:00,
2013-01-14 00:18:00,6.5,2.3,30.31,NNW,338,0.0,0.0,83,0.00,,,0.00,WUHU216HW,2013-01-14 06:18:00,
2013-01-14 00:23:00,6.1,2.0,30.31,NNW,338,0.0,0.0,83,0.00,,,0.00,WUHU216HW,2013-01-14 06:23:00,
2013-01-14 00:28:00,6.1,2.0,30.32,NNW,338,0.0,0.0,83,0.00,,,0.00,WUHU216HW,2013-01-14 06:28:00,
2013-01-14 00:33:00,6.7,2.8,30.31,NNW,338,0.0,0.2,84,0.00,,,0.00,WUHU216HW,2013-01-14 06:33:00,
2013-01-14 00:38:00,6.7,2.5,30.31,NNW,338,0.0,0.2,83,0.00,,,0.00,WUHU216HW,2013-01-14 06:38:00,
2013-01-14 00:43:00,6.5,2.3,30.31,NNW,338,0.0,0.0,83,0.00,,,0.00,WUHU216HW,2013-01-14 06:43:00,
2013-01-14 00:48:00,6.8,2.7,30.31,NNW,338,0.2,0.2,83,0.00,,,0.00,WUHU216HW,2013-01-14 06:48:00,
2013-01-14 00:53:00,7.6,3.4,30.30,NNW,338,0.0,0.2,83,0.00,,,0.00,WUHU216HW,2013-01-14 06:53:00,
2013-01-14 00:58:00,7.4,3.2,30.30,NNW,338,0.0,0.2,83,0.00,,,0.00,WUHU216HW,2013-01-14 06:58:00,
2013-01-14 01:03:00,7.0,2.9,30.31,NNW,338,0.0,0.0,83,0.00,,,0.00,WUHU216HW,2013-01-14 07:03:00,
2013-01-14 01:08:00,7.2,3.1,30.31,NNW,338,0.2,0.2,83,0.00,,,0.00,WUHU216HW,2013-01-14 07:08:00,
2013-01-14 01:13:00,7.6,3.4,30.31,NNW,338,0.0,0.2,83,0.00,,,0.00,WUHU216HW,2013-01-14 07:13:00,
2013-01-14 01:18:00,7.9,3.8,30.31,NNW,338,0.0,0.2,83,0.00,,,0.00,WUHU216HW,2013-01-14 07:18:00,
2013-01-14 01:23:00,8.3,4.1,30.32,NNW,338,0.0,0.0,83,0.00,,,0.00,WUHU216HW,2013-01-14 07:23:00,
2013-01-14 01:28:00,8.3,4.4,30.31,NNW,338,0.0,0.0,84,0.00,,,0.00,WUHU216HW,2013-01-14 07:28:00,
2013-01-14 01:33:00,8.3,4.1,30.32,NNW,338,0.0,0.2,83,0.00,,,0.00,WUHU216HW,2013-01-14 07:33:00,
2013-01-14 01:38:00,8.3,4.4,30.32,NNW,338,0.0,0.2,84,0.00,,,0.00,WUHU216HW,2013-01-14 07:38:00,
2013-01-14 01:43:00,7.9,4.1,30.32,NNW,338,0.0,0.0,84,0.00,,,0.00,WUHU216HW,2013-01-14 07:43:00,
2013-01-14 01:48:00,7.4,3.2,30.33,NNW,338,0.0,0.0,83,0.00,,,0.00,WUHU216HW,2013-01-14 07:48:00,
2013-01-14 01:53:00,6.7,2.5,30.33,NNW,338,0.0,0.0,83,0.00,,,0.00,WUHU216HW,2013-01-14 07:53:00,
2013-01-14 01:58:00,6.1,2.0,30.33,NNW,338,0.0,0.0,83,0.00,,,0.00,WUHU216HW,2013-01-14 07:58:00,
2013-01-14 02:04:00,5.6,1.3,30.34,NNW,338,0.0,0.0,82,0.00,,,0.00,WUHU216HW,2013-01-14 08:04:00,
2013-01-14 02:09:00,5.0,0.7,30.34,NNW,338,0.0,0.0,82,0.00,,,0.00,WUHU216HW,2013-01-14 08:09:00,
2013-01-14 02:14:00,4.7,0.4,30.34,NNW,338,0.0,0.0,82,0.00,,,0.00,WUHU216HW,2013-01-14 08:14:00,
2013-01-14 02:19:00,4.7,0.4,30.34,NNW,338,0.0,0.0,82,0.00,,,0.00,WUHU216HW,2013-01-14 08:19:00,
2013-01-14 02:24:00,4.5,0.2,30.35,NNW,338,0.0,0.0,82,0.00,,,0.00,WUHU216HW,2013-01-14 08:24:00,
2013-01-14 02:28:00,4.7,0.4,30.35,NNW,338,0.0,0.0,82,0.00,,,0.00,WUHU216HW,2013-01-14 08:28:00,
2013-01-14 02:33:00,5.0,0.9,30.36,NNW,338,0.0,0.0,83,0.00,,,0.00,WUHU216HW,2013-01-14 08:33:00,
2013-01-14 02:38:00,5.2,1.6,30.37,NNW,338,0.0,0.0,85,0.00,,,0.00,WUHU216HW,2013-01-14 08:38:00,
2013-01-14 02:43:00,5.2,1.4,30.37,NNW,338,0.0,0.0,84,0.00,,,0.00,WUHU216HW,2013-01-14 08:43:00,
2013-01-14 02:48:00,5.2,1.1,30.37,NNW,338,0.0,0.0,83,0.00,,,0.00,WUHU216HW,2013-01-14 08:48:00,
2013-01-14 02:53:00,5.4,1.5,30.38,NNW,338,0.0,0.0,84,0.00,,,0.00,WUHU216HW,2013-01-14 08:53:00,
2013-01-14 02:58:00,5.4,1.5,30.38,NNW,338,0.0,0.0,84,0.00,,,0.00,WUHU216HW,2013-01-14 08:58:00,
2013-01-14 03:03:00,5.0,1.2,30.39,NNW,338,0.0,0.0,84,0.00,,,0.00,WUHU216HW,2013-01-14 09:03:00,
2013-01-14 03:09:00,4.7,0.5,30.39,NNW,338,0.0,0.0,83,0.00,,,0.00,WUHU216HW,2013-01-14 09:09:00,
2013-01-14 03:14:00,4.3,0.2,30.39,NNW,338,0.0,0.0,83,0.00,,,0.00,WUHU216HW,2013-01-14 09:14:00,
2013-01-14 03:19:00,4.5,0.6,30.39,NNW,338,0.0,0.0,84,0.00,,,0.00,WUHU216HW,2013-01-14 09:19:00,
2013-01-14 03:24:00,5.4,1.8,30.39,NNW,338,0.0,0.0,85,0.00,,,0.00,WUHU216HW,2013-01-14 09:24:00,
2013-01-14 03:29:00,5.8,2.2,30.40,NNW,338,0.0,0.0,85,0.00,,,0.00,WUHU216HW,2013-01-14 09:29:00,
2013-01-14 03:34:00,5.8,2.2,30.39,NNW,338,0.0,0.0,85,0.00,,,0.00,WUHU216HW,2013-01-14 09:34:00,
2013-01-14 03:39:00,5.2,1.6,30.40,NNW,338,0.0,0.0,85,0.00,,,0.00,WUHU216HW,2013-01-14 09:39:00,
2013-01-14 03:44:00,4.7,0.8,30.40,NNW,338,0.0,0.0,84,0.00,,,0.00,WUHU216HW,2013-01-14 09:44:00,
2013-01-14 03:49:00,4.1,0.3,30.40,NNW,338,0.0,0.0,84,0.00,,,0.00,WUHU216HW,2013-01-14 09:49:00,
2013-01-14 03:54:00,4.0,-0.2,30.39,NNW,338,0.0,0.0,83,0.00,,,0.00,WUHU216HW,2013-01-14 09:54:00,
2013-01-14 03:59:00,4.1,0.0,30.40,NNW,338,0.0,0.0,83,0.00,,,0.00,WUHU216HW,2013-01-14 09:59:00,
2013-01-14 04:04:00,4.0,-0.2,30.40,NNW,338,0.0,0.0,83,0.00,,,0.00,WUHU216HW,2013-01-14 10:04:00,
2013-01-14 04:09:00,4.0,-0.2,30.40,NNW,338,0.0,0.0,83,0.00,,,0.00,WUHU216HW,2013-01-14 10:09:00,
2013-01-14 04:14:00,4.0,-0.2,30.41,NNW,338,0.0,0.0,83,0.00,,,0.00,WUHU216HW,2013-01-14 10:14:00,
2013-01-14 04:19:00,4.0,-0.2,30.41,NNW,338,0.0,0.0,83,0.00,,,0.00,WUHU216HW,2013-01-14 10:19:00,
2013-01-14 04:24:00,4.5,0.9,30.41,NNW,338,0.0,0.0,85,0.00,,,0.00,WUHU216HW,2013-01-14 10:24:00,
2013-01-14 04:29:00,4.3,0.7,30.41,NNW,338,0.0,0.0,85,0.00,,,0.00,WUHU216HW,2013-01-14 10:29:00,
2013-01-14 04:34:00,4.1,0.3,30.40,NNW,338,0.0,0.0,84,0.00,,,0.00,WUHU216HW,2013-01-14 10:34:00,
2013-01-14 04:38:00,3.8,-0.4,30.40,NNW,338,0.0,0.0,83,0.00,,,0.00,WUHU216HW,2013-01-14 10:38:00,
2013-01-14 04:43:00,4.0,-0.2,30.40,NNW,338,0.0,0.0,83,0.00,,,0.00,WUHU216HW,2013-01-14 10:43:00,
2013-01-14 04:49:00,4.0,-0.2,30.40,NNW,338,0.0,0.0,83,0.00,,,0.00,WUHU216HW,2013-01-14 10:49:00,
2013-01-14 04:54:00,4.0,-0.2,30.40,NNW,338,0.0,0.0,83,0.00,,,0.00,WUHU216HW,2013-01-14 10:54:00,
2013-01-14 04:59:00,4.0,-0.2,30.40,NNW,338,0.0,0.0,83,0.00,,,0.00,WUHU216HW,2013-01-14 10:59:00,
2013-01-14 05:04:00,4.0,-0.2,30.40,NNW,338,0.0,0.0,83,0.00,,,0.00,WUHU216HW,2013-01-14 11:04:00,
2013-01-14 05:08:00,3.8,-0.4,30.41,NNW,338,0.0,0.0,83,0.00,,,0.00,WUHU216HW,2013-01-14 11:08:00,
2013-01-14 05:13:00,4.3,0.5,30.41,NNW,338,0.0,0.0,84,0.00,,,0.00,WUHU216HW,2013-01-14 11:13:00,
2013-01-14 05:18:00,5.0,1.4,30.41,NNW,338,0.0,0.0,85,0.00,,,0.00,WUHU216HW,2013-01-14 11:18:00,
2013-01-14 05:23:00,5.0,1.4,30.41,NNW,338,0.0,0.0,85,0.00,,,0.00,WUHU216HW,2013-01-14 11:23:00,
2013-01-14 05:28:00,4.5,0.6,30.42,NNW,338,0.0,0.0,84,0.00,,,0.00,WUHU216HW,2013-01-14 11:28:00,
2013-01-14 05:33:00,4.0,0.1,30.41,NNW,338,0.0,0.0,84,0.00,,,0.00,WUHU216HW,2013-01-14 11:33:00,
2013-01-14 05:38:00,3.6,-0.3,30.42,NNW,338,0.0,0.0,84,0.00,,,0.00,WUHU216HW,2013-01-14 11:38:00,
2013-01-14 05:43:00,3.4,-0.7,30.42,NNW,338,0.0,0.0,83,0.00,,,0.00,WUHU216HW,2013-01-14 11:43:00,
2013-01-14 05:48:00,3.4,-0.4,30.42,NNW,338,0.0,0.0,84,0.00,,,0.00,WUHU216HW,2013-01-14 11:48:00,
2013-01-14 05:53:00,3.4,-0.4,30.42,NNW,338,0.0,0.0,84,0.00,,,0.00,WUHU216HW,2013-01-14 11:53:00,
2013-01-14 05:58:00,3.2,-0.6,30.43,NNW,338,0.0,0.0,84,0.00,,,0.00,WUHU216HW,2013-01-14 11:58:00,
2013-01-14 06:03:00,2.9,-1.3,30.43,NNW,338,0.0,0.0,83,0.00,,,0.00,WUHU216HW,2013-01-14 12:03:00,
2013-01-14 06:08:00,2.5,-1.6,30.43,NNW,338,0.0,0.0,83,0.00,,,0.00,WUHU216HW,2013-01-14 12:08:00,
2013-01-14 06:13:00,2.3,-2.0,30.44,NNW,338,0.0,0.0,82,0.00,,,0.00,WUHU216HW,2013-01-14 12:13:00,
2013-01-14 06:18:00,2.3,-1.8,30.44,NNW,338,0.0,0.0,83,0.00,,,0.00,WUHU216HW,2013-01-14 12:18:00,
2013-01-14 06:23:00,2.5,-1.6,30.44,NNW,338,0.0,0.0,83,0.00,,,0.00,WUHU216HW,2013-01-14 12:23:00,
2013-01-14 06:29:00,2.2,-2.0,30.44,NNW,338,0.0,0.0,83,0.00,,,0.00,WUHU216HW,2013-01-14 12:29:00,
2013-01-14 06:34:00,2.0,-2.3,30.44,NNW,338,0.0,0.0,82,0.00,,,0.00,WUHU216HW,2013-01-14 12:34:00,
2013-01-14 06:39:00,1.8,-2.5,30.44,NNW,338,0.0,0.0,82,0.00,,,0.00,WUHU216HW,2013-01-14 12:39:00,
2013-01-14 06:44:00,2.0,-2.2,30.44,NNW,338,0.0,0.0,83,0.00,,,0.00,WUHU216HW,2013-01-14 12:44:00,
2013-01-14 06:49:00,2.3,-1.8,30.44,NNW,338,0.0,0.0,83,0.00,,,0.00,WUHU216HW,2013-01-14 12:49:00,
2013-01-14 06:54:00,2.3,-1.8,30.44,NNW,338,0.0,0.0,83,0.00,,,0.00,WUHU216HW,2013-01-14 12:54:00,
2013-01-14 06:59:00,2.2,-2.0,30.44,NNW,338,0.0,0.0,83,0.00,,,0.00,WUHU216HW,2013-01-14 12:59:00,
2013-01-14 07:04:00,2.2,-2.0,30.44,NNW,338,0.0,0.0,83,0.00,,,0.00,WUHU216HW,2013-01-14 13:04:00,
2013-01-14 07:09:00,1.8,-2.3,30.44,NNW,338,0.0,0.0,83,0.00,,,0.00,WUHU216HW,2013-01-14 13:09:00,
2013-01-14 07:14:00,1.8,-2.5,30.45,NNW,338,0.0,0.0,82,0.00,,,0.00,WUHU216HW,2013-01-14 13:14:00,
2013-01-14 07:19:00,2.0,-2.3,30.45,NNW,338,0.0,0.0,82,0.00,,,0.00,WUHU216HW,2013-01-14 13:19:00,
2013-01-14 07:24:00,2.3,-1.8,30.45,NNW,338,0.0,0.0,83,0.00,,,0.00,WUHU216HW,2013-01-14 13:24:00,
2013-01-14 07:29:00,2.5,-1.6,30.45,NNW,338,0.0,0.0,83,0.00,,,0.00,WUHU216HW,2013-01-14 13:29:00,
2013-01-14 07:34:00,2.5,-1.6,30.45,NNW,338,0.0,0.0,83,0.00,,,0.00,WUHU216HW,2013-01-14 13:34:00,
2013-01-14 07:39:00,2.3,-1.8,30.45,NNW,338,0.0,0.0,83,0.00,,,0.00,WUHU216HW,2013-01-14 13:39:00,
2013-01-14 07:44:00,2.0,-2.3,30.45,NNW,338,0.0,0.0,82,0.00,,,0.00,WUHU216HW,2013-01-14 13:44:00,
2013-01-14 07:49:00,1.8,-2.5,30.44,NNW,338,0.0,0.0,82,0.00,,,0.00,WUHU216HW,2013-01-14 13:49:00,
2013-01-14 07:54:00,2.0,-2.3,30.45,NNW,338,0.0,0.0,82,0.00,,,0.00,WUHU216HW,2013-01-14 13:54:00,
2013-01-14 07:59:00,2.5,-1.6,30.44,NNW,338,0.0,0.0,83,0.00,,,0.00,WUHU216HW,2013-01-14 13:59:00,
2013-01-14 08:04:00,3.2,-0.9,30.44,NNW,338,0.0,0.0,83,0.00,,,0.00,WUHU216HW,2013-01-14 14:04:00,
2013-01-14 08:09:00,3.2,-0.9,30.44,NNW,338,0.0,0.0,83,0.00,,,0.00,WUHU216HW,2013-01-14 14:09:00,
2013-01-14 08:14:00,3.8,-0.4,30.44,NNW,338,0.0,0.0,83,0.00,,,0.00,WUHU216HW,2013-01-14 14:14:00,
2013-01-14 08:19:00,5.2,1.6,30.44,NNW,338,0.0,0.0,85,0.00,,,0.00,WUHU216HW,2013-01-14 14:19:00,
2013-01-14 08:24:00,6.5,2.9,30.44,NNW,338,0.0,0.2,85,0.00,,,0.00,WUHU216HW,2013-01-14 14:24:00,
2013-01-14 08:29:00,7.7,4.1,30.44,NNW,338,0.0,0.2,85,0.00,,,0.00,WUHU216HW,2013-01-14 14:29:00,
2013-01-14 08:34:00,8.6,5.3,30.45,NNW,338,0.2,0.2,86,0.00,,,0.00,WUHU216HW,2013-01-14 14:34:00,
2013-01-14 08:39:00,9.5,6.1,30.45,NNW,338,0.2,0.2,86,0.00,,,0.00,WUHU216HW,2013-01-14 14:39:00,
2013-01-14 08:44:00,9.9,6.5,30.44,NNW,338,0.0,0.2,86,0.00,,,0.00,WUHU216HW,2013-01-14 14:44:00,
2013-01-14 08:49:00,10.4,7.0,30.45,NNW,338,0.0,0.2,86,0.00,,,0.00,WUHU216HW,2013-01-14 14:49:00,
2013-01-14 08:54:00,11.2,7.7,30.45,NNW,338,0.3,0.4,86,0.00,,,0.00,WUHU216HW,2013-01-14 14:54:00,
2013-01-14 08:59:00,12.1,8.6,30.44,NNW,338,0.3,0.4,86,0.00,,,0.00,WUHU216HW,2013-01-14 14:59:00,
2013-01-14 09:04:00,12.8,9.4,30.45,NNW,338,0.2,0.4,86,0.00,,,0.00,WUHU216HW,2013-01-14 15:04:00,
2013-01-14 09:09:00,13.7,10.0,30.45,NNW,338,0.2,0.4,85,0.00,,,0.00,WUHU216HW,2013-01-14 15:09:00,
2013-01-14 09:14:00,15.3,11.5,30.44,NNW,338,0.2,0.4,85,0.00,,,0.00,WUHU216HW,2013-01-14 15:14:00,
2013-01-14 09:19:00,17.3,13.7,30.44,NNW,338,0.3,0.9,86,0.00,,,0.00,WUHU216HW,2013-01-14 15:19:00,
2013-01-14 09:24:00,18.0,14.1,30.44,NNW,338,0.3,0.9,85,0.00,,,0.00,WUHU216HW,2013-01-14 15:24:00,
2013-01-14 09:29:00,18.5,14.4,30.44,NNW,338,0.3,0.9,84,0.00,,,0.00,WUHU216HW,2013-01-14 15:29:00,
2013-01-14 09:34:00,19.4,15.0,30.44,NNW,338,0.4,0.9,83,0.00,,,0.00,WUHU216HW,2013-01-14 15:34:00,
2013-01-14 09:39:00,20.0,15.3,30.44,NNW,338,0.6,0.9,82,0.00,,,0.00,WUHU216HW,2013-01-14 15:39:00,
2013-01-14 09:44:00,20.7,15.2,30.44,NNW,338,0.2,1.1,79,0.00,,,0.00,WUHU216HW,2013-01-14 15:44:00,
2013-01-14 09:49:00,21.4,15.3,30.44,NNW,338,1.2,1.8,77,0.00,,,0.00,WUHU216HW,2013-01-14 15:49:00,
2013-01-14 09:54:00,22.1,15.4,30.45,NNW,338,0.4,1.8,75,0.00,,,0.00,WUHU216HW,2013-01-14 15:54:00,
2013-01-14 09:59:00,23.0,16.3,30.45,NNW,338,0.5,0.9,75,0.00,,,0.00,WUHU216HW,2013-01-14 15:59:00,
2013-01-14 10:04:00,23.4,14.8,30.46,NNW,338,0.5,0.9,69,0.00,,,0.00,WUHU216HW,2013-01-14 16:04:00,
2013-01-14 10:09:00,24.3,16.2,30.46,NNW,338,0.5,1.1,71,0.00,,,0.00,WUHU216HW,2013-01-14 16:09:00,
2013-01-14 10:14:00,24.1,15.0,30.47,NNW,338,0.5,1.1,68,0.00,,,0.00,WUHU216HW,2013-01-14 16:14:00,
2013-01-14 10:19:00,24.1,13.7,30.47,SSW,203,0.4,1.3,64,0.00,,,0.00,WUHU216HW,2013-01-14 16:19:00,
2013-01-14 10:24:00,23.9,11.6,30.47,SSW,203,1.6,1.6,59,0.00,,,0.00,WUHU216HW,2013-01-14 16:24:00,
2013-01-14 10:29:00,22.7,11.2,30.47,SSW,203,0.5,3.4,61,0.00,,,0.00,WUHU216HW,2013-01-14 16:29:00,
2013-01-14 10:34:00,23.4,12.3,30.48,SSW,203,1.6,3.4,62,0.00,,,0.00,WUHU216HW,2013-01-14 16:34:00,
2013-01-14 10:39:00,23.4,12.3,30.48,SSW,203,0.6,2.0,62,0.00,,,0.00,WUHU216HW,2013-01-14 16:39:00,
2013-01-14 10:44:00,24.5,12.6,30.48,SSW,203,0.9,2.0,60,0.00,,,0.00,WUHU216HW,2013-01-14 16:44:00,
2013-01-14 10:49:00,24.8,13.0,30.47,SSW,203,1.2,1.8,60,0.00,,,0.00,WUHU216HW,2013-01-14 16:49:00,
2013-01-14 10:54:00,24.8,12.5,30.47,SSW,203,0.5,1.8,59,0.00,,,0.00,WUHU216HW,2013-01-14 16:54:00,
2013-01-14 10:59:00,24.1,10.6,30.47,SSW,203,1.4,2.0,56,0.00,,,0.00,WUHU216HW,2013-01-14 16:59:00,
2013-01-14 11:04:00,24.1,11.0,30.47,SSW,203,1.1,2.7,57,0.00,,,0.00,WUHU216HW,2013-01-14 17:04:00,
2013-01-14 11:09:00,24.3,11.6,30.47,SSW,203,0.5,2.7,58,0.00,,,0.00,WUHU216HW,2013-01-14 17:09:00,
2013-01-14 11:14:00,25.6,13.2,30.47,SSW,203,1.1,1.8,59,0.00,,,0.00,WUHU216HW,2013-01-14 17:14:00,
2013-01-14 11:19:00,26.5,13.1,30.47,SSW,203,0.3,1.1,57,0.00,,,0.00,WUHU216HW,2013-01-14 17:19:00,
2013-01-14 11:24:00,27.2,12.3,30.46,SSW,203,0.7,1.1,53,0.00,,,0.00,WUHU216HW,2013-01-14 17:24:00,
2013-01-14 11:29:00,26.5,11.1,30.46,SSW,203,2.5,2.7,52,0.00,,,0.00,WUHU216HW,2013-01-14 17:29:00,
2013-01-14 11:34:00,27.4,13.2,30.46,SSW,203,0.4,2.7,55,0.00,,,0.00,WUHU216HW,2013-01-14 17:34:00,
2013-01-14 11:39:00,28.4,12.7,30.45,SSW,203,1.3,2.5,51,0.00,,,0.00,WUHU216HW,2013-01-14 17:39:00,
2013-01-14 11:44:00,29.2,12.9,30.45,SSW,203,0.7,2.5,50,0.00,,,0.00,WUHU216HW,2013-01-14 17:44:00,
2013-01-14 11:49:00,28.1,10.9,30.44,SSW,203,1.5,4.3,48,0.00,,,0.00,WUHU216HW,2013-01-14 17:49:00,
2013-01-14 11:54:00,28.1,12.7,30.45,SSW,203,1.1,4.3,52,0.00,,,0.00,WUHU216HW,2013-01-14 17:54:00,
2013-01-14 11:59:00,29.2,13.3,30.44,SSW,203,0.9,2.5,51,0.00,,,0.00,WUHU216HW,2013-01-14 17:59:00,
2013-01-14 12:04:00,29.9,14.8,30.44,SSW,203,0.3,1.8,53,0.00,,,0.00,WUHU216HW,2013-01-14 18:04:00,
2013-01-14 12:09:00,29.9,13.1,30.44,SSW,203,2.5,3.8,49,0.00,,,0.00,WUHU216HW,2013-01-14 18:09:00,
2013-01-14 12:14:00,29.2,13.7,30.44,SSW,203,1.1,3.8,52,0.00,,,0.00,WUHU216HW,2013-01-14 18:14:00,
2013-01-14 12:19:00,31.1,15.1,30.43,SSW,203,2.0,2.5,51,0.00,,,0.00,WUHU216HW,2013-01-14 18:19:00,
2013-01-14 12:24:00,31.3,14.3,30.43,SSW,203,0.9,2.0,49,0.00,,,0.00,WUHU216HW,2013-01-14 18:24:00,
2013-01-14 12:29:00,31.0,15.0,30.42,SSW,203,1.1,2.5,51,0.00,,,0.00,WUHU216HW,2013-01-14 18:29:00,
2013-01-14 12:34:00,31.3,13.3,30.42,SSW,203,1.1,2.5,47,0.00,,,0.00,WUHU216HW,2013-01-14 18:34:00,
2013-01-14 12:39:00,31.7,14.7,30.42,SSW,203,0.9,2.5,49,0.00,,,0.00,WUHU216HW,2013-01-14 18:39:00,
2013-01-14 12:44:00,32.6,14.5,30.42,SSW,203,1.8,2.2,47,0.00,,,0.00,WUHU216HW,2013-01-14 18:44:00,
2013-01-14 12:49:00,31.7,14.1,30.42,SSW,203,0.4,3.1,48,0.00,,,0.00,WUHU216HW,2013-01-14 18:49:00,
2013-01-14 12:54:00,32.4,14.8,30.42,SSW,203,0.8,3.4,48,0.00,,,0.00,WUHU216HW,2013-01-14 18:54:00,
2013-01-14 12:59:00,33.5,15.3,30.42,SSW,203,1.3,3.4,47,0.00,,,0.00,WUHU216HW,2013-01-14 18:59:00,
2013-01-14 13:04:00,32.2,13.2,30.42,SSW,203,1.5,3.4,45,0.00,,,0.00,WUHU216HW,2013-01-14 19:04:00,
2013-01-14 13:09:00,31.5,14.0,30.42,SSW,203,0.7,3.4,48,0.00,,,0.00,WUHU216HW,2013-01-14 19:09:00,
2013-01-14 13:14:00,31.3,14.3,30.41,SSW,203,0.4,2.5,49,0.00,,,0.00,WUHU216HW,2013-01-14 19:14:00,
2013-01-14 13:19:00,32.2,16.1,30.41,SSW,203,1.1,1.8,51,0.00,,,0.00,WUHU216HW,2013-01-14 19:19:00,
2013-01-14 13:24:00,32.8,16.1,30.41,SSW,203,1.2,1.8,50,0.00,,,0.00,WUHU216HW,2013-01-14 19:24:00,
2013-01-14 13:29:00,31.7,14.7,30.41,SSW,203,1.8,3.8,49,0.00,,,0.00,WUHU216HW,2013-01-14 19:29:00,
2013-01-14 13:34:00,32.0,14.0,30.42,SSW,203,1.8,3.8,47,0.00,,,0.00,WUHU216HW,2013-01-14 19:34:00,
2013-01-14 13:39:00,31.7,14.1,30.42,SSW,203,0.6,1.8,48,0.00,,,0.00,WUHU216HW,2013-01-14 19:39:00,
2013-01-14 13:44:00,31.9,15.3,30.42,SSW,203,1.1,1.8,50,0.00,,,0.00,WUHU216HW,2013-01-14 19:44:00,
2013-01-14 13:49:00,32.0,14.0,30.42,SSW,203,2.9,2.9,47,0.00,,,0.00,WUHU216HW,2013-01-14 19:49:00,
2013-01-14 13:54:00,31.7,14.1,30.42,SSW,203,0.7,2.9,48,0.00,,,0.00,WUHU216HW,2013-01-14 19:54:00,
2013-01-14 13:59:00,32.9,15.8,30.42,SSW,203,0.5,2.9,49,0.01,,,0.01,WUHU216HW,2013-01-14 19:59:00,
2013-01-14 14:04:00,33.7,16.9,30.42,SSW,203,1.3,1.3,50,0.01,,,0.01,WUHU216HW,2013-01-14 20:04:00,
2013-01-14 14:09:00,34.6,15.3,30.42,SSW,203,1.6,2.9,45,0.01,,,0.01,WUHU216HW,2013-01-14 20:09:00,
2013-01-14 14:14:00,33.8,15.6,30.42,SSW,203,1.1,2.9,47,0.01,,,0.01,WUHU216HW,2013-01-14 20:14:00,
2013-01-14 14:19:00,34.2,15.4,30.42,SSW,203,1.1,2.0,46,0.01,,,0.01,WUHU216HW,2013-01-14 20:19:00,
2013-01-14 14:24:00,33.7,14.4,30.43,SSW,203,1.0,2.2,45,0.01,,,0.01,WUHU216HW,2013-01-14 20:24:00,
2013-01-14 14:29:00,33.3,14.1,30.43,SSW,203,1.1,2.5,45,0.01,,,0.01,WUHU216HW,2013-01-14 20:29:00,
2013-01-14 14:34:00,33.7,14.4,30.43,SSW,203,1.3,2.5,45,0.01,,,0.01,WUHU216HW,2013-01-14 20:34:00,
2013-01-14 14:39:00,33.8,14.6,30.43,SSW,203,0.6,1.8,45,0.01,,,0.01,WUHU216HW,2013-01-14 20:39:00,
2013-01-14 14:44:00,35.1,16.3,30.42,SSW,203,1.1,1.8,46,0.01,,,0.01,WUHU216HW,2013-01-14 20:44:00,
2013-01-14 14:49:00,36.4,16.4,30.42,SSW,203,1.0,1.8,44,0.01,,,0.01,WUHU216HW,2013-01-14 20:49:00,
2013-01-14 14:54:00,36.2,16.3,30.42,SSW,203,0.5,1.8,44,0.00,,,0.01,WUHU216HW,2013-01-14 20:54:00,
2013-01-14 14:59:00,36.4,15.9,30.43,SSW,203,0.4,1.1,43,0.00,,,0.01,WUHU216HW,2013-01-14 20:59:00,
2013-01-14 15:04:00,36.9,16.9,30.43,SSW,203,0.3,1.1,44,0.00,,,0.01,WUHU216HW,2013-01-14 21:04:00,
2013-01-14 15:09:00,37.1,17.6,30.43,SSW,203,0.4,1.1,45,0.00,,,0.01,WUHU216HW,2013-01-14 21:09:00,
2013-01-14 15:14:00,37.4,16.4,30.43,SSW,203,1.8,2.2,42,0.00,,,0.01,WUHU216HW,2013-01-14 21:14:00,
2013-01-14 15:19:00,35.5,14.1,30.43,SSW,203,1.2,2.2,41,0.00,,,0.01,WUHU216HW,2013-01-14 21:19:00,
2013-01-14 15:24:00,34.7,13.9,30.43,SSW,203,0.3,2.2,42,0.00,,,0.01,WUHU216HW,2013-01-14 21:24:00,
2013-01-14 15:29:00,35.3,14.4,30.43,SSW,203,1.0,1.8,42,0.00,,,0.01,WUHU216HW,2013-01-14 21:29:00,
2013-01-14 15:34:00,34.6,13.2,30.43,SSW,203,0.7,2.5,41,0.00,,,0.01,WUHU216HW,2013-01-14 21:34:00,
2013-01-14 15:39:00,34.6,14.2,30.42,SSW,203,0.4,2.5,43,0.00,,,0.01,WUHU216HW,2013-01-14 21:39:00,
2013-01-14 15:44:00,36.5,17.1,30.42,SSW,203,0.0,0.9,45,0.00,,,0.01,WUHU216HW,2013-01-14 21:44:00,
2013-01-14 15:49:00,36.5,16.6,30.42,SSW,203,0.6,1.1,44,0.00,,,0.01,WUHU216HW,2013-01-14 21:49:00,
2013-01-14 15:54:00,36.4,16.4,30.42,SSW,203,0.4,1.1,44,0.00,,,0.01,WUHU216HW,2013-01-14 21:54:00,
2013-01-14 15:59:00,36.9,17.5,30.42,SSW,203,0.2,0.9,45,0.00,,,0.01,WUHU216HW,2013-01-14 21:59:00,
2013-01-14 16:04:00,36.0,15.0,30.42,SSW,203,0.7,1.1,42,0.00,,,0.01,WUHU216HW,2013-01-14 22:04:00,
2013-01-14 16:09:00,35.6,15.8,30.41,SSW,203,0.2,1.1,44,0.00,,,0.01,WUHU216HW,2013-01-14 22:09:00,
2013-01-14 16:14:00,34.7,15.9,30.42,SSW,203,0.0,0.7,46,0.00,,,0.01,WUHU216HW,2013-01-14 22:14:00,
2013-01-14 16:19:00,34.6,15.3,30.42,SSW,203,0.0,0.7,45,0.00,,,0.01,WUHU216HW,2013-01-14 22:19:00,
2013-01-14 16:24:00,33.3,13.6,30.42,SSW,203,0.2,0.2,44,0.00,,,0.01,WUHU216HW,2013-01-14 22:24:00,
2013-01-14 16:29:00,30.6,12.2,30.42,SSW,203,0.4,0.7,46,0.00,,,0.01,WUHU216HW,2013-01-14 22:29:00,
2013-01-14 16:34:00,28.4,11.7,30.42,SSW,203,0.5,0.7,49,0.00,,,0.01,WUHU216HW,2013-01-14 22:34:00,
2013-01-14 16:39:00,27.4,11.2,30.41,SSW,203,0.4,0.7,50,0.00,,,0.01,WUHU216HW,2013-01-14 22:39:00,
2013-01-14 16:44:00,26.5,11.1,30.42,SSW,203,0.3,0.4,52,0.00,,,0.01,WUHU216HW,2013-01-14 22:44:00,
2013-01-14 16:49:00,25.9,11.1,30.42,SSW,203,0.3,0.7,53,0.00,,,0.01,WUHU216HW,2013-01-14 22:49:00,
2013-01-14 16:54:00,25.4,11.0,30.42,SSW,203,0.2,0.7,54,0.00,,,0.01,WUHU216HW,2013-01-14 22:54:00,
2013-01-14 16:59:00,24.8,10.9,30.42,SSW,203,0.4,0.7,55,0.00,,,0.01,WUHU216HW,2013-01-14 22:59:00,
2013-01-14 17:04:00,24.5,11.0,30.42,SSW,203,0.4,1.1,56,0.00,,,0.01,WUHU216HW,2013-01-14 23:04:00,
2013-01-14 17:09:00,24.1,10.6,30.42,SSW,203,0.0,1.1,56,0.00,,,0.01,WUHU216HW,2013-01-14 23:09:00,
2013-01-14 17:14:00,23.4,10.7,30.42,SSW,203,0.2,0.4,58,0.00,,,0.01,WUHU216HW,2013-01-14 23:14:00,
2013-01-14 17:19:00,23.2,11.0,30.42,SSW,203,0.0,0.4,59,0.00,,,0.01,WUHU216HW,2013-01-14 23:19:00,
2013-01-14 17:24:00,22.7,10.1,30.41,SSW,203,0.0,0.4,58,0.00,,,0.01,WUHU216HW,2013-01-14 23:24:00,
2013-01-14 17:29:00,21.8,9.6,30.42,SSW,203,0.0,0.2,59,0.00,,,0.01,WUHU216HW,2013-01-14 23:29:00,
2013-01-14 17:34:00,21.2,9.1,30.42,SSW,203,0.0,0.2,59,0.00,,,0.01,WUHU216HW,2013-01-14 23:34:00,
2013-01-14 17:39:00,20.9,9.2,30.42,SSW,203,0.0,0.0,60,0.00,,,0.01,WUHU216HW,2013-01-14 23:39:00,
2013-01-14 17:44:00,20.2,8.8,30.42,SSW,203,0.0,0.0,61,0.00,,,0.01,WUHU216HW,2013-01-14 23:44:00,
2013-01-14 17:49:00,19.6,8.9,30.42,SSW,203,0.0,0.0,63,0.00,,,0.01,WUHU216HW,2013-01-14 23:49:00,
2013-01-14 17:54:00,18.9,8.3,30.42,SSW,203,0.0,0.0,63,0.00,,,0.01,WUHU216HW,2013-01-14 23:54:00,
2013-01-14 17:59:00,18.4,8.5,30.42,SSW,203,0.0,0.0,65,0.00,,,0.01,WUHU216HW,2013-01-14 23:59:00,
2013-01-14 18:04:00,18.0,7.5,30.42,SSW,203,0.0,0.0,63,0.00,,,0.01,WUHU216HW,2013-01-15 00:04:00,
2013-01-14 18:09:00,18.0,8.2,30.42,SSW,203,0.0,0.2,65,0.00,,,0.01,WUHU216HW,2013-01-15 00:09:00,
2013-01-14 18:14:00,18.5,9.6,30.42,SSW,203,0.0,0.4,68,0.00,,,0.01,WUHU216HW,2013-01-15 00:14:00,
2013-01-14 18:19:00,18.7,9.5,30.42,SSW,203,0.0,0.4,67,0.00,,,0.01,WUHU216HW,2013-01-15 00:19:00,
2013-01-14 18:24:00,18.4,9.2,30.42,SSW,203,0.0,0.0,67,0.00,,,0.01,WUHU216HW,2013-01-15 00:24:00,
2013-01-14 18:29:00,17.6,8.2,30.42,SSW,203,0.0,0.0,66,0.00,,,0.01,WUHU216HW,2013-01-15 00:29:00,
2013-01-14 18:34:00,17.1,8.0,30.42,SSW,203,0.0,0.0,67,0.00,,,0.01,WUHU216HW,2013-01-15 00:34:00,
2013-01-14 18:39:00,16.9,8.1,30.42,SSW,203,0.0,0.0,68,0.00,,,0.01,WUHU216HW,2013-01-15 00:39:00,
2013-01-14 18:44:00,16.6,8.1,30.42,SSW,203,0.0,0.0,69,0.00,,,0.01,WUHU216HW,2013-01-15 00:44:00,
2013-01-14 18:49:00,16.7,8.9,30.42,SSW,203,0.0,0.0,71,0.00,,,0.01,WUHU216HW,2013-01-15 00:49:00,
2013-01-14 18:54:00,17.3,9.5,30.42,SSW,203,0.2,0.2,71,0.00,,,0.01,WUHU216HW,2013-01-15 00:54:00,
2013-01-14 18:59:00,17.8,10.0,30.42,SSW,203,0.2,0.2,71,0.00,,,0.01,WUHU216HW,2013-01-15 00:59:00,
2013-01-14 19:04:00,18.4,10.4,30.42,SSW,203,0.2,0.7,71,0.00,,,0.01,WUHU216HW,2013-01-15 01:04:00,
2013-01-14 19:09:00,18.9,10.7,30.42,SSW,203,0.2,0.7,70,0.00,,,0.01,WUHU216HW,2013-01-15 01:09:00,
2013-01-14 19:14:00,18.7,10.2,30.42,SSW,203,0.2,0.2,69,0.00,,,0.01,WUHU216HW,2013-01-15 01:14:00,
2013-01-14 19:19:00,18.5,10.0,30.42,SSW,203,0.0,0.4,69,0.00,,,0.01,WUHU216HW,2013-01-15 01:19:00,
2013-01-14 19:24:00,18.2,9.7,30.42,SSW,203,0.0,0.4,69,0.00,,,0.01,WUHU216HW,2013-01-15 01:24:00,
2013-01-14 19:29:00,17.5,9.0,30.42,SSW,203,0.0,0.0,69,0.00,,,0.01,WUHU216HW,2013-01-15 01:29:00,
2013-01-14 19:34:00,16.9,8.5,30.42,SSW,203,0.2,0.2,69,0.00,,,0.01,WUHU216HW,2013-01-15 01:34:00,
2013-01-14 19:39:00,16.7,8.6,30.42,SSW,203,0.0,0.2,70,0.00,,,0.01,WUHU216HW,2013-01-15 01:39:00,
2013-01-14 19:44:00,16.4,8.3,30.42,SSW,203,0.0,0.0,70,0.00,,,0.01,WUHU216HW,2013-01-15 01:44:00,
2013-01-14 19:49:00,15.8,7.4,30.42,SSW,203,0.0,0.0,69,0.00,,,0.01,WUHU216HW,2013-01-15 01:49:00,
2013-01-14 19:54:00,15.5,7.8,30.42,SSW,203,0.0,0.0,71,0.00,,,0.01,WUHU216HW,2013-01-15 01:54:00,
2013-01-14 19:59:00,14.9,6.9,30.42,SSW,203,0.0,0.0,70,0.00,,,0.01,WUHU216HW,2013-01-15 01:59:00,
2013-01-14 20:04:00,14.6,6.9,30.42,SSW,203,0.0,0.0,71,0.00,,,0.01,WUHU216HW,2013-01-15 02:04:00,
2013-01-14 20:09:00,14.0,7.0,30.42,SSW,203,0.0,0.0,73,0.00,,,0.01,WUHU216HW,2013-01-15 02:09:00,
2013-01-14 20:14:00,13.7,6.7,30.41,SSW,203,0.0,0.0,73,0.00,,,0.01,WUHU216HW,2013-01-15 02:14:00,
2013-01-14 20:19:00,13.1,5.5,30.41,SSW,203,0.0,0.0,71,0.00,,,0.01,WUHU216HW,2013-01-15 02:19:00,
2013-01-14 20:24:00,13.0,6.0,30.42,SSW,203,0.0,0.0,73,0.00,,,0.01,WUHU216HW,2013-01-15 02:24:00,
2013-01-14 20:29:00,13.0,6.8,30.41,SSW,203,0.0,0.0,76,0.00,,,0.01,WUHU216HW,2013-01-15 02:29:00,
2013-01-14 20:34:00,13.0,7.0,30.42,SSW,203,0.0,0.0,77,0.00,,,0.01,WUHU216HW,2013-01-15 02:34:00,
2013-01-14 20:39:00,12.6,6.1,30.42,SSW,203,0.0,0.0,75,0.00,,,0.01,WUHU216HW,2013-01-15 02:39:00,
2013-01-14 20:44:00,12.1,5.1,30.42,SSW,203,0.0,0.0,73,0.00,,,0.01,WUHU216HW,2013-01-15 02:44:00,
2013-01-14 20:49:00,11.5,4.8,30.42,SSW,203,0.0,0.0,74,0.00,,,0.01,WUHU216HW,2013-01-15 02:49:00,
2013-01-14 20:54:00,11.3,4.9,30.42,SSW,203,0.0,0.0,75,0.00,,,0.01,WUHU216HW,2013-01-15 02:54:00,
2013-01-14 20:59:00,11.2,5.0,30.41,SSW,203,0.0,0.0,76,0.00,,,0.01,WUHU216HW,2013-01-15 02:59:00,
2013-01-14 21:04:00,11.2,5.0,30.41,SSW,203,0.0,0.0,76,0.00,,,0.01,WUHU216HW,2013-01-15 03:04:00,
2013-01-14 21:09:00,11.0,5.0,30.41,SSW,203,0.0,0.0,77,0.00,,,0.01,WUHU216HW,2013-01-15 03:09:00,
2013-01-14 21:14:00,10.6,4.4,30.41,SSW,203,0.0,0.0,76,0.00,,,0.01,WUHU216HW,2013-01-15 03:14:00,
2013-01-14 21:19:00,10.4,4.0,30.41,SSW,203,0.0,0.0,75,0.00,,,0.01,WUHU216HW,2013-01-15 03:19:00,
2013-01-14 21:24:00,10.3,4.4,30.42,SSW,203,0.0,0.0,77,0.00,,,0.01,WUHU216HW,2013-01-15 03:24:00,
2013-01-14 21:29:00,10.4,4.9,30.41,SSW,203,0.0,0.0,78,0.00,,,0.01,WUHU216HW,2013-01-15 03:29:00,
2013-01-14 21:34:00,10.1,4.0,30.42,SSW,203,0.0,0.0,76,0.00,,,0.01,WUHU216HW,2013-01-15 03:34:00,
2013-01-14 21:39:00,10.1,4.2,30.41,SSW,203,0.0,0.0,77,0.00,,,0.01,WUHU216HW,2013-01-15 03:39:00,
2013-01-14 21:44:00,10.3,4.7,30.41,SSW,203,0.0,0.0,78,0.00,,,0.01,WUHU216HW,2013-01-15 03:44:00,
2013-01-14 21:49:00,10.3,4.7,30.41,SSW,203,0.0,0.0,78,0.00,,,0.01,WUHU216HW,2013-01-15 03:49:00,
2013-01-14 21:54:00,9.9,4.3,30.41,SSW,203,0.0,0.0,78,0.00,,,0.01,WUHU216HW,2013-01-15 03:54:00,
2013-01-14 21:59:00,9.5,3.7,30.41,SSW,203,0.0,0.0,77,0.00,,,0.01,WUHU216HW,2013-01-15 03:59:00,
2013-01-14 22:04:00,9.0,3.2,30.40,SSW,203,0.0,0.0,77,0.00,,,0.01,WUHU216HW,2013-01-15 04:04:00,
2013-01-14 22:09:00,9.0,3.2,30.41,SSW,203,0.0,0.0,77,0.00,,,0.01,WUHU216HW,2013-01-15 04:09:00,
2013-01-14 22:14:00,8.8,3.1,30.41,SSW,203,0.0,0.0,77,0.00,,,0.01,WUHU216HW,2013-01-15 04:14:00,
2013-01-14 22:19:00,8.6,2.9,30.40,SSW,203,0.0,0.0,77,0.00,,,0.01,WUHU216HW,2013-01-15 04:19:00,
2013-01-14 22:24:00,8.5,2.7,30.40,SSW,203,0.0,0.0,77,0.00,,,0.01,WUHU216HW,2013-01-15 04:24:00,
2013-01-14 22:29:00,8.3,2.5,30.41,SSW,203,0.0,0.0,77,0.00,,,0.01,WUHU216HW,2013-01-15 04:29:00,
2013-01-14 22:34:00,8.3,2.5,30.41,SSW,203,0.0,0.0,77,0.00,,,0.01,WUHU216HW,2013-01-15 04:34:00,
2013-01-14 22:39:00,8.8,3.7,30.42,SSW,203,0.0,0.0,79,0.00,,,0.01,WUHU216HW,2013-01-15 04:39:00,
2013-01-14 22:44:00,9.2,4.5,30.42,SSW,203,0.0,0.0,81,0.00,,,0.01,WUHU216HW,2013-01-15 04:44:00,
2013-01-14 22:49:00,9.5,5.1,30.42,SSW,203,0.0,0.0,82,0.00,,,0.01,WUHU216HW,2013-01-15 04:49:00,
2013-01-14 22:54:00,9.2,4.2,30.42,SSW,203,0.0,0.0,80,0.00,,,0.01,WUHU216HW,2013-01-15 04:54:00,
2013-01-14 22:59:00,8.5,3.1,30.42,SSW,203,0.0,0.0,78,0.00,,,0.01,WUHU216HW,2013-01-15 04:59:00,
2013-01-14 23:00:00,8.5,3.1,30.42,SSW,203,0.0,0.0,78,0.00,,,0.01,WUHU216HW,2013-01-15 05:00:00,
2013-01-14 23:01:00,8.3,2.9,30.41,SSW,203,0.0,0.0,78,0.00,,,0.01,WUHU216HW,2013-01-15 05:01:00,
2013-01-14 23:02:00,8.3,2.9,30.41,SSW,203,0.0,0.0,78,0.00,,,0.01,WUHU216HW,2013-01-15 05:02:00,
2013-01-14 23:07:00,7.9,2.5,30.42,SSW,203,0.0,0.0,78,0.00,,,0.01,WUHU216HW,2013-01-15 05:07:00,
2013-01-14 23:12:00,7.6,2.2,30.42,SSW,203,0.0,0.0,78,0.00,,,0.01,WUHU216HW,2013-01-15 05:12:00,
2013-01-14 23:17:00,7.6,2.2,30.42,SSW,203,0.0,0.0,78,0.00,,,0.01,WUHU216HW,2013-01-15 05:17:00,
2013-01-14 23:22:00,7.7,2.4,30.42,SSW,203,0.0,0.0,78,0.00,,,0.01,WUHU216HW,2013-01-15 05:22:00,
2013-01-14 23:27:00,7.9,2.8,30.42,SSW,203,0.0,0.0,79,0.00,,,0.01,WUHU216HW,2013-01-15 05:27:00,
2013-01-14 23:32:00,7.9,2.8,30.42,SSW,203,0.0,0.0,79,0.00,,,0.01,WUHU216HW,2013-01-15 05:32:00,
2013-01-14 23:37:00,7.9,2.8,30.42,SSW,203,0.0,0.0,79,0.00,,,0.01,WUHU216HW,2013-01-15 05:37:00,
2013-01-14 23:42:00,7.7,2.6,30.42,SSW,203,0.0,0.0,79,0.00,,,0.01,WUHU216HW,2013-01-15 05:42:00,
2013-01-14 23:47:00,7.6,2.4,30.42,SSW,203,0.0,0.0,79,0.00,,,0.01,WUHU216HW,2013-01-15 05:47:00,
2013-01-14 23:52:00,7.6,2.2,30.42,SSW,203,0.0,0.0,78,0.00,,,0.01,WUHU216HW,2013-01-15 05:52:00,
2013-01-14 23:57:00,7.2,1.8,30.42,SSW,203,0.0,0.0,78,0.00,,,0.01,WUHU216HW,2013-01-15 05:57:00,